createdAt,value
2022-12-03T00:01:16.551Z,-2.3
2022-12-03T00:06:16.874Z,-2.3
2022-12-03T00:11:23.021Z,-2.3
2022-12-03T00:16:29.120Z,-2.3
2022-12-03T00:21:35.227Z,-2.3
2022-12-03T00:26:41.339Z,-2.3
2022-12-03T00:31:47.471Z,-2.4
2022-12-03T00:36:53.577Z,-2.3
2022-12-03T00:41:59.697Z,-2.4
2022-12-03T00:47:05.813Z,-2.4
2022-12-03T00:52:11.944Z,-2.4
2022-12-03T00:57:17.136Z,-2.4
2022-12-03T01:02:23.234Z,-2.4
2022-12-03T01:07:29.300Z,-2.4
2022-12-03T01:12:35.419Z,-2.4
2022-12-03T01:17:41.544Z,-2.4
2022-12-03T01:22:47.661Z,-2.4
2022-12-03T01:27:53.865Z,-2.4
2022-12-03T01:32:59.909Z,-2.5
2022-12-03T01:38:06.067Z,-2.5
2022-12-03T01:43:12.127Z,-2.5
2022-12-03T01:48:18.255Z,-2.5
2022-12-03T01:53:24.370Z,-2.5
2022-12-03T01:58:30.478Z,-2.5
2022-12-03T02:03:35.631Z,-2.5
2022-12-03T02:08:41.767Z,-2.5
2022-12-03T02:13:47.871Z,-2.5
2022-12-03T02:18:54.098Z,-2.5
2022-12-03T02:24:00.106Z,-2.5
2022-12-03T02:29:06.236Z,-2.5
2022-12-03T02:34:12.366Z,-2.5
2022-12-03T02:39:18.453Z,-2.5
2022-12-03T02:44:24.571Z,-2.5
2022-12-03T02:49:30.675Z,-2.5
2022-12-03T02:54:36.850Z,-2.5
2022-12-03T02:59:42.931Z,-2.5
2022-12-03T03:04:49.039Z,-2.5
2022-12-03T03:09:54.252Z,-2.5
2022-12-03T03:15:00.284Z,-2.6
2022-12-03T03:20:06.435Z,-2.5
2022-12-03T03:25:12.576Z,-2.6
2022-12-03T03:30:18.639Z,-2.5
2022-12-03T03:35:24.771Z,-2.5
2022-12-03T03:40:30.901Z,-2.5
2022-12-03T03:45:37.020Z,-2.6
2022-12-03T03:50:43.130Z,-2.6
2022-12-03T03:55:49.242Z,-2.6
2022-12-03T04:00:55.441Z,-2.6
2022-12-03T04:06:01.483Z,-2.6
2022-12-03T04:11:07.665Z,-2.6
2022-12-03T04:16:12.740Z,-2.6
2022-12-03T04:21:18.916Z,-2.6
2022-12-03T04:26:24.977Z,-2.6
2022-12-03T04:31:31.097Z,-2.6
2022-12-03T04:36:37.193Z,-2.6
2022-12-03T04:41:43.313Z,-2.6
2022-12-03T04:46:49.434Z,-2.6
2022-12-03T04:51:55.551Z,-2.6
2022-12-03T04:57:01.677Z,-2.6
2022-12-03T05:02:07.835Z,-2.6
2022-12-03T05:07:13.936Z,-2.6
2022-12-03T05:12:20.079Z,-2.7
2022-12-03T05:17:26.136Z,-2.7
2022-12-03T05:22:31.274Z,-2.7
2022-12-03T05:27:37.387Z,-2.7
2022-12-03T05:32:43.505Z,-2.7
2022-12-03T05:37:49.647Z,-2.7
2022-12-03T05:42:55.776Z,-2.7
2022-12-03T05:48:01.866Z,-2.8
2022-12-03T05:53:07.977Z,-2.8
2022-12-03T05:58:14.107Z,-2.8
2022-12-03T06:03:20.271Z,-2.8
2022-12-03T06:08:26.345Z,-2.8
2022-12-03T06:13:32.504Z,-2.9
2022-12-03T06:18:38.585Z,-2.8
2022-12-03T06:23:44.718Z,-2.8
2022-12-03T06:28:49.838Z,-2.8
2022-12-03T06:33:56.112Z,-2.8
2022-12-03T06:39:02.098Z,-2.8
2022-12-03T06:44:08.235Z,-2.8
2022-12-03T06:49:14.395Z,-2.8
2022-12-03T06:54:19.509Z,-2.8
2022-12-03T06:59:25.605Z,-2.8
2022-12-03T07:04:33.092Z,-2.8
2022-12-03T07:09:37.890Z,-2.8
2022-12-03T07:14:43.976Z,-2.8
2022-12-03T07:19:50.218Z,-2.8
2022-12-03T07:24:56.208Z,-2.7
2022-12-03T07:30:02.321Z,-2.7
2022-12-03T07:35:08.467Z,-2.7
2022-12-03T07:40:14.534Z,-2.7
2022-12-03T07:45:20.715Z,-2.7
2022-12-03T07:50:26.789Z,-2.6
2022-12-03T07:55:32.895Z,-2.5
2022-12-03T08:00:38.096Z,-2.5
2022-12-03T08:05:44.136Z,-2.5
2022-12-03T08:10:50.289Z,-2.4
2022-12-03T08:15:56.481Z,-2.4
2022-12-03T08:21:02.514Z,-2.3
2022-12-03T08:26:08.678Z,-2.3
2022-12-03T08:31:14.749Z,-2.2
2022-12-03T08:36:20.937Z,-2.2
2022-12-03T08:41:26.975Z,-2.3
2022-12-03T08:46:33.093Z,-2.3
2022-12-03T08:51:39.317Z,-2.3
2022-12-03T08:56:45.405Z,-2.4
2022-12-03T09:01:51.446Z,-2.4
2022-12-03T09:06:56.659Z,-2.3
2022-12-03T09:12:02.755Z,-2.3
2022-12-03T09:17:08.971Z,-2.3
2022-12-03T09:22:15.021Z,-2.2
2022-12-03T09:27:21.196Z,-2.2
2022-12-03T09:32:27.252Z,-2.2
2022-12-03T09:37:33.438Z,-2.1
2022-12-03T09:42:39.431Z,-2.1
2022-12-03T09:47:45.522Z,-2.1
2022-12-03T09:52:51.636Z,-2.2
2022-12-03T09:57:57.765Z,-2.2
2022-12-03T10:03:03.873Z,-2.2
2022-12-03T10:08:10.009Z,-2.2
2022-12-03T10:13:15.125Z,-2.2
2022-12-03T10:18:21.251Z,-2.1
2022-12-03T10:23:27.378Z,-2.1
2022-12-03T10:28:33.478Z,-2
2022-12-03T10:33:39.609Z,-2
2022-12-03T10:38:45.732Z,-1.9
2022-12-03T10:43:51.849Z,-1.9
2022-12-03T10:48:57.952Z,-1.9
2022-12-03T10:54:04.074Z,-1.9
2022-12-03T10:59:10.203Z,-1.9
2022-12-03T11:09:22.436Z,-1.9
2022-12-03T11:14:28.553Z,-1.9
2022-12-03T11:19:33.685Z,-1.9
2022-12-03T11:24:39.825Z,-2
2022-12-03T11:29:45.932Z,-2
2022-12-03T11:34:52.046Z,-2.1
2022-12-03T11:39:58.145Z,-2
2022-12-03T11:45:04.293Z,-1.8
2022-12-03T11:50:10.392Z,-1.8
2022-12-03T11:55:16.511Z,-1.8
2022-12-03T12:00:22.609Z,-1.9
2022-12-03T12:05:28.788Z,-1.9
2022-12-03T12:10:34.851Z,-1.9
2022-12-03T12:15:40.982Z,-1.9
2022-12-03T12:20:47.090Z,-1.9
2022-12-03T12:25:53.222Z,-1.8
2022-12-03T12:30:58.378Z,-1.9
2022-12-03T12:36:04.483Z,-1.9
2022-12-03T12:41:10.609Z,-1.8
2022-12-03T12:46:16.829Z,-1.8
2022-12-03T12:51:22.842Z,-1.8
2022-12-03T12:56:28.949Z,-1.8
2022-12-03T13:01:35.102Z,-1.8
2022-12-03T13:06:41.214Z,-1.8
2022-12-03T13:11:47.333Z,-1.7
2022-12-03T13:16:53.432Z,-1.8
2022-12-03T13:21:59.550Z,-1.8
2022-12-03T13:27:05.788Z,-1.8
2022-12-03T13:32:11.895Z,-2
2022-12-03T13:37:17.060Z,-2
2022-12-03T13:42:23.195Z,-1.9
2022-12-03T13:47:29.311Z,-2
2022-12-03T13:52:35.465Z,-2
2022-12-03T13:57:41.521Z,-2
2022-12-03T14:02:47.720Z,-2
2022-12-03T14:07:53.796Z,-2
2022-12-03T14:12:59.805Z,-2
2022-12-03T14:18:06.024Z,-2
2022-12-03T14:23:12.097Z,-2
2022-12-03T14:28:18.084Z,-2
2022-12-03T14:33:24.266Z,-2
2022-12-03T14:38:30.381Z,-2
2022-12-03T14:43:35.462Z,-2.1
2022-12-03T14:48:41.599Z,-2.1
2022-12-03T14:53:47.771Z,-2.1
2022-12-03T14:58:53.894Z,-2.1
2022-12-03T15:03:59.928Z,-2
2022-12-03T15:09:06.047Z,-2.1
2022-12-03T15:14:12.146Z,-2.1
2022-12-03T15:19:18.337Z,-2.1
2022-12-03T15:24:24.617Z,-2.1
2022-12-03T15:29:30.682Z,-2.2
2022-12-03T15:34:36.661Z,-2.1
2022-12-03T15:39:42.843Z,-2.2
2022-12-03T15:44:49.097Z,-2.2
2022-12-03T15:49:54.176Z,-2.2
2022-12-03T15:55:00.347Z,-2.2
2022-12-03T16:00:06.332Z,-2.2
2022-12-03T16:05:12.523Z,-2.2
2022-12-03T16:10:18.499Z,-2.2
2022-12-03T16:15:24.608Z,-2.1
2022-12-03T16:20:30.800Z,-2.1
2022-12-03T16:25:36.857Z,-2.1
2022-12-03T16:30:42.966Z,-2.1
2022-12-03T16:35:49.220Z,-2.2
2022-12-03T16:40:55.357Z,-2.1
2022-12-03T16:46:01.528Z,-2.1
2022-12-03T16:51:07.536Z,-2.1
2022-12-03T16:56:12.732Z,-2.1
2022-12-03T17:01:18.692Z,-2.1
2022-12-03T17:06:24.822Z,-2.1
2022-12-03T17:11:30.983Z,-2.1
2022-12-03T17:16:37.047Z,-2.1
2022-12-03T17:21:43.292Z,-2.1
2022-12-03T17:26:49.289Z,-2.1
2022-12-03T17:31:55.574Z,-2.1
2022-12-03T17:37:01.648Z,-2.1
2022-12-03T17:42:07.784Z,-2.1
2022-12-03T17:47:13.755Z,-2.1
2022-12-03T17:52:19.968Z,-2
2022-12-03T17:57:26.127Z,-2
2022-12-03T18:02:31.276Z,-2.1
2022-12-03T18:07:37.318Z,-2
2022-12-03T18:12:43.401Z,-2
2022-12-03T18:17:49.601Z,-2
2022-12-03T18:22:55.686Z,-2
2022-12-03T18:28:01.791Z,-2
2022-12-03T18:33:07.819Z,-2
2022-12-03T18:38:13.929Z,-2
2022-12-03T18:43:20.180Z,-2
2022-12-03T18:48:26.234Z,-2
2022-12-03T18:53:32.402Z,-2
2022-12-03T18:58:38.491Z,-2
2022-12-03T19:03:44.515Z,-1.9
2022-12-03T19:08:49.855Z,-1.9
2022-12-03T19:13:55.919Z,-1.9
2022-12-03T19:19:01.951Z,-1.9
2022-12-03T19:24:08.125Z,-1.9
2022-12-03T19:29:14.136Z,-1.9
2022-12-03T19:34:20.283Z,-1.9
2022-12-03T19:39:26.357Z,-1.9
2022-12-03T19:44:32.676Z,-1.9
2022-12-03T19:49:38.707Z,-1.9
2022-12-03T19:54:44.799Z,-1.9
2022-12-03T19:59:50.906Z,-1.9
2022-12-03T20:04:57.073Z,-1.8
2022-12-03T20:10:03.176Z,-1.8
2022-12-03T20:15:08.229Z,-1.8
2022-12-03T20:20:14.399Z,-1.8
2022-12-03T20:25:20.416Z,-1.8
2022-12-03T20:30:26.710Z,-1.8
2022-12-03T20:35:32.696Z,-1.8
2022-12-03T20:40:38.791Z,-1.8
2022-12-03T20:45:44.901Z,-1.8
2022-12-03T20:50:51.001Z,-1.7
2022-12-03T20:55:57.134Z,-1.8
2022-12-03T21:01:03.256Z,-1.7
2022-12-03T21:06:09.361Z,-1.7
2022-12-03T21:11:15.476Z,-1.7
2022-12-03T21:16:21.613Z,-1.7
2022-12-03T21:21:26.782Z,-1.7
2022-12-03T21:26:32.868Z,-1.7
2022-12-03T21:31:39.075Z,-1.7
2022-12-03T21:36:45.212Z,-1.7
2022-12-03T21:41:51.249Z,-1.7
2022-12-03T21:46:57.337Z,-1.7
2022-12-03T21:52:03.447Z,-1.7
2022-12-03T21:57:09.563Z,-1.7
2022-12-03T22:02:15.761Z,-1.6
2022-12-03T22:07:21.921Z,-1.6
2022-12-03T22:12:28.038Z,-1.6
2022-12-03T22:17:34.154Z,-1.6
2022-12-03T22:22:40.204Z,-1.6
2022-12-03T22:27:45.310Z,-1.5
2022-12-03T22:32:51.409Z,-1.5
2022-12-03T22:37:57.624Z,-1.5
2022-12-03T22:43:03.782Z,-1.5
2022-12-03T22:48:09.797Z,-1.5
2022-12-03T22:53:15.894Z,-1.5
2022-12-03T22:58:22.106Z,-1.5
2022-12-03T23:03:28.216Z,-1.4
2022-12-03T23:08:34.341Z,-1.4
2022-12-03T23:13:40.476Z,-1.4
2022-12-03T23:23:52.577Z,-1.4
2022-12-03T23:28:58.734Z,-1.4
2022-12-03T23:34:03.895Z,-1.4
2022-12-03T23:39:09.943Z,-1.3
2022-12-03T23:44:16.125Z,-1.3
2022-12-03T23:49:22.279Z,-1.3
2022-12-03T23:54:28.330Z,-1.3
2022-12-03T23:59:33.453Z,-1.3
